Terminal Aerodrome Forecast
Issued by NWS Quad Cities IA IL

Current Version | Previous Version | Text Only | Print | Product List | Glossary On
Versions: 1 2 3 4 5 6 7 8 9 10 11 12 13 14 15 16 17
000
FTUS43 KDVN 031141
TAFMLI
TAF
KMLI 031141Z 0312/0412 17008KT P6SM VCSH SCT035 OVC070
     FM031500 16011KT 6SM -RA BR OVC060
     FM031700 19015G20KT P6SM SCT060 BKN150
     FM040000 19008KT P6SM BKN150
     FM040600 22007KT 6SM -RA BR VCTS SCT050 BKN070CB
     FM041000 26007KT 5SM -RA BR VCTS OVC035CB=

USA.gov is the U.S. government's official web portal to all federal, state and local government web resources and services.